createdAt,value
2023-01-17T06:06:35.755Z,88.25
2023-01-17T06:09:03.724Z,88.04
2023-01-17T06:11:31.691Z,88.61
2023-01-17T06:13:59.404Z,88.92
2023-01-17T06:33:51.748Z,89.45
2023-01-17T06:37:20.179Z,90.29
2023-01-17T06:53:31.210Z,89.17
2023-01-17T06:55:58.959Z,89.13
2023-01-17T06:58:27.282Z,89.60
2023-01-17T07:00:55.053Z,89.15
2023-01-17T07:03:25.813Z,88.91
2023-01-17T07:05:53.663Z,88.48
2023-01-17T07:08:21.513Z,88.36
2023-01-17T07:10:49.486Z,88.15
2023-01-17T07:13:17.198Z,88.05
2023-01-17T07:15:45.138Z,88.66
2023-01-17T07:18:12.766Z,88.56
2023-01-17T07:20:41.560Z,88.80
2023-01-17T07:23:09.648Z,88.71
2023-01-17T07:25:37.484Z,88.22
2023-01-17T07:32:31.474Z,88.20
2023-01-17T07:34:59.320Z,87.89
2023-01-17T07:37:27.036Z,87.07
2023-01-17T07:39:54.998Z,87.45
2023-01-17T07:42:24.372Z,87.71
2023-01-17T07:44:52.134Z,87.58
2023-01-17T07:47:20.358Z,87.37
2023-01-17T07:49:48.406Z,88.43
2023-01-17T07:52:18.139Z,88.01
2023-01-17T07:54:46.119Z,88.07
2023-01-17T07:57:13.991Z,88.15
2023-01-17T07:59:42.023Z,88.79
2023-01-17T08:02:20.961Z,88.87
2023-01-17T08:04:49.388Z,88.60
2023-01-17T08:07:17.229Z,88.18
2023-01-17T08:09:49.840Z,88.39
2023-01-17T08:12:18.152Z,87.93
2023-01-17T08:14:46.276Z,88.68
2023-01-17T08:17:17.123Z,87.86
2023-01-17T08:19:45.162Z,88.36
2023-01-17T08:22:12.868Z,88.64
2023-01-17T08:24:40.616Z,88.39
2023-01-17T08:27:09.276Z,87.89
2023-01-17T08:29:37.010Z,87.54
2023-01-17T08:32:04.959Z,87.79
2023-01-17T08:34:33.760Z,87.54
2023-01-17T08:37:01.492Z,86.96
2023-01-17T08:39:29.203Z,86.69
2023-01-17T08:41:57.660Z,86.35
2023-01-17T08:44:25.409Z,86.62
2023-01-17T08:46:53.327Z,85.73
2023-01-17T08:49:21.160Z,86.41
2023-01-17T08:51:48.910Z,85.35
2023-01-17T08:54:17.435Z,85.61
2023-01-17T08:56:47.238Z,85.42
2023-01-17T08:59:15.177Z,84.72
2023-01-17T09:01:46.168Z,85.39
2023-01-17T09:04:16.996Z,84.87
2023-01-17T09:06:48.612Z,84.36
2023-01-17T09:09:17.813Z,83.85
2023-01-17T09:11:45.897Z,83.37
2023-01-17T09:14:13.730Z,83.72
2023-01-17T09:16:41.715Z,82.82
2023-01-17T09:19:10.007Z,83.88
2023-01-17T09:21:37.871Z,82.69
2023-01-17T09:24:05.931Z,82.54
2023-01-17T09:26:34.010Z,81.78
2023-01-17T09:29:02.098Z,82.03
2023-01-17T09:31:30.411Z,81.44
2023-01-17T09:33:59.343Z,81.48
2023-01-17T09:36:34.265Z,80.08
2023-01-17T09:39:04.009Z,80.37
2023-01-17T09:41:50.568Z,79.33
2023-01-17T09:44:52.013Z,79.83
2023-01-17T09:47:35.982Z,80.44
2023-01-17T09:50:15.798Z,83.96
2023-01-17T09:52:44.331Z,81.38
2023-01-17T09:55:16.754Z,78.87
2023-01-17T09:57:50.587Z,79.66
2023-01-17T10:00:30.783Z,79.90
2023-01-17T10:03:01.909Z,80.10
2023-01-17T10:05:36.912Z,80.39
2023-01-17T10:08:47.111Z,80.99
2023-01-17T10:11:33.192Z,80.73
2023-01-17T10:14:36.421Z,81.50
2023-01-17T10:17:16.516Z,81.47
2023-01-17T10:20:13.278Z,81.65
2023-01-17T10:23:01.517Z,82.68
2023-01-17T10:25:45.199Z,81.74
2023-01-17T10:28:17.945Z,81.85
2023-01-17T10:30:53.165Z,81.74
2023-01-17T10:33:36.669Z,82.11
2023-01-17T10:36:26.239Z,81.55
2023-01-17T10:38:56.703Z,82.04
2023-01-17T10:41:41.002Z,83.72
2023-01-17T10:44:18.308Z,81.54
2023-01-17T10:47:12.570Z,79.80
2023-01-17T10:49:45.546Z,79.83
2023-01-17T10:52:37.520Z,80.79
2023-01-17T10:55:37.629Z,81.51
2023-01-17T10:58:15.214Z,80.85
2023-01-17T11:01:20.576Z,81.05
2023-01-17T11:03:55.033Z,81.60
2023-01-17T11:07:00.555Z,82.11
2023-01-17T11:09:40.891Z,82.54
2023-01-17T11:12:46.636Z,82.39
2023-01-17T11:15:39.744Z,83.02
2023-01-17T11:18:16.277Z,82.81
2023-01-17T11:20:48.427Z,83.22
2023-01-17T11:23:32.961Z,83.63
2023-01-17T11:26:06.330Z,83.43
2023-01-17T11:28:35.851Z,85.15
2023-01-17T11:31:26.557Z,86.87
2023-01-17T11:34:24.443Z,87.83
2023-01-17T11:37:17.852Z,90.20
2023-01-17T11:39:48.560Z,90.50
2023-01-17T11:42:44.964Z,91.81
2023-01-17T11:45:28.070Z,92.44
2023-01-17T11:48:08.011Z,92.15
2023-01-17T11:50:44.749Z,93.17
2023-01-17T11:53:17.264Z,93.87
2023-01-17T11:56:06.372Z,94.51
2023-01-17T11:58:39.349Z,94.30
2023-01-17T12:01:48.093Z,94.58
2023-01-17T12:04:28.187Z,95.42
2023-01-17T12:07:39.462Z,95.75
2023-01-17T12:10:30.584Z,95.73
2023-01-17T12:13:40.909Z,96.10
2023-01-17T12:16:33.007Z,94.59
2023-01-17T12:19:33.826Z,92.46
2023-01-17T12:22:26.746Z,89.08
2023-01-17T12:25:01.079Z,87.50
2023-01-17T12:27:56.043Z,87.36
2023-01-17T12:31:11.249Z,87.88
2023-01-17T12:34:07.118Z,87.39
2023-01-17T12:36:53.768Z,88.52
2023-01-17T12:39:27.982Z,89.68
2023-01-17T12:42:37.216Z,88.86
2023-01-17T12:45:09.708Z,89.70
2023-01-17T12:47:43.070Z,89.79
2023-01-17T12:50:22.804Z,89.39
2023-01-17T12:53:25.936Z,89.82
2023-01-17T12:56:16.902Z,87.92
2023-01-17T12:59:04.579Z,85.65
2023-01-17T13:01:40.077Z,86.16
2023-01-17T13:04:24.940Z,86.51
2023-01-17T13:07:01.180Z,84.61
2023-01-17T13:09:33.344Z,86.09
2023-01-17T13:12:04.949Z,83.75
2023-01-17T13:14:33.106Z,82.86
2023-01-17T13:17:35.382Z,81.68
2023-01-17T13:20:11.866Z,82.02
2023-01-17T13:22:40.460Z,80.36
2023-01-17T13:25:38.634Z,79.65
2023-01-17T13:28:13.908Z,80.16
2023-01-17T13:31:09.258Z,80.46
2023-01-17T13:34:00.469Z,80.48
2023-01-17T13:36:58.118Z,78.31
2023-01-17T13:39:33.359Z,77.36
2023-01-17T13:42:12.765Z,75.78
2023-01-17T13:44:40.565Z,77.47
2023-01-17T13:47:11.651Z,76.48
2023-01-17T13:49:39.258Z,75.39
2023-01-17T13:52:18.843Z,75.83
2023-01-17T13:54:53.160Z,77.22
2023-01-17T19:30:51.679Z,79.80
2023-01-17T21:01:48.579Z,80.86
2023-01-17T21:36:50.544Z,82.26
